PWSweather.com
Personal Weather Stations
Station Observations
N3SME
Betz Creek, Wilmington Island, Savannah, GA 31410

Betz Creek, Wilmington IslandSavannah, GA 31410

Lat: 32.023021, Lon: -80.959452

Elevation: 15

Station Type: Ambient

Latest ConditionsUpdated 9:57:14 PM EDT Wednesday, Jul 23, 2014
Currently Today's Max Today's Min Today's Average
Temperature 82.3°F27.9°C 92.6°F33.7°C 75.5°F24.2°C 83.3°F28.5°C
Dew Point 76.1°F24.5°C 79.4°F26.3°C 74.2°F23.4°C 76.0°F24.4°C
Winds Calm Calm 6.9 mph SE11.1 kmh SE - 1.2 mph 1.9 kmh
Wind Gusts 6.9 mph11.1 kmh 26.2 mph42.2 kmh - -
Humidity 82% 98% 62% 81%
Pressure 29.93 in1013.5 mb 30.03 in1016.9 mb 29.92 in1013.2 mb -
Hour Temp Dew Point Humidity Winds Wind Gusts Pressure Precip Precip Rate Daily Precip Total
09:57 PM 82.3°F27.9°C 76.1°F24.5°C 82% Calm Calm 6.9 mph11.1 kmh 29.93 in1013.5 mb 0.00 in0.0 mm 0.00 in/hr0.0 mm/hr 0.00 in0.0 mm
09:42 PM 82.5°F28.1°C 76.7°F24.8°C 83% Calm Calm 5.1 mph8.2 kmh 29.93 in1013.5 mb 0.00 in0.0 mm 0.00 in/hr0.0 mm/hr 0.00 in0.0 mm
09:27 PM 82.7°F28.2°C 76.1°F24.5°C 81% Calm Calm 8.7 mph14.0 kmh 29.92 in1013.2 mb 0.00 in0.0 mm 0.00 in/hr0.0 mm/hr 0.00 in0.0 mm
09:12 PM 83.0°F28.3°C 76.1°F24.5°C 80% Calm Calm 10.5 mph16.9 kmh 29.92 in1013.2 mb 0.00 in0.0 mm 0.00 in/hr0.0 mm/hr 0.00 in0.0 mm
08:57 PM 83.4°F28.6°C 76.0°F24.4°C 79% Calm Calm 8.7 mph14.0 kmh 29.92 in1013.2 mb 0.00 in0.0 mm 0.00 in/hr0.0 mm/hr 0.00 in0.0 mm
08:42 PM 83.4°F28.6°C 76.0°F24.4°C 79% 3.6 mph SSW5.8 kmh SSW 14.1 mph22.7 kmh 29.92 in1013.2 mb 0.00 in0.0 mm 0.00 in/hr0.0 mm/hr 0.00 in0.0 mm
08:27 PM 83.7°F28.7°C 76.0°F24.4°C 78% Calm Calm 12.3 mph19.8 kmh 29.92 in1013.2 mb 0.00 in0.0 mm 0.00 in/hr0.0 mm/hr 0.00 in0.0 mm
08:12 PM 84.3°F29.1°C 76.1°F24.5°C 77% Calm Calm 8.7 mph14.0 kmh 29.92 in1013.2 mb 0.00 in0.0 mm 0.00 in/hr0.0 mm/hr 0.00 in0.0 mm
07:57 PM 84.6°F29.2°C 75.6°F24.2°C 75% 1.8 mph SW2.9 kmh SW 14.1 mph22.7 kmh 29.92 in1013.2 mb 0.00 in0.0 mm 0.00 in/hr0.0 mm/hr 0.00 in0.0 mm
07:42 PM 85.4°F29.7°C 76.3°F24.6°C 75% Calm Calm 14.1 mph22.7 kmh 29.92 in1013.2 mb 0.00 in0.0 mm 0.00 in/hr0.0 mm/hr 0.00 in0.0 mm
07:27 PM 85.9°F29.9°C 76.4°F24.7°C 74% Calm Calm 19.2 mph30.9 kmh 29.93 in1013.5 mb 0.00 in0.0 mm 0.00 in/hr0.0 mm/hr 0.00 in0.0 mm
07:12 PM 86.1°F30.1°C 76.2°F24.6°C 73% Calm Calm 8.7 mph14.0 kmh 29.93 in1013.5 mb 0.00 in0.0 mm 0.00 in/hr0.0 mm/hr 0.00 in0.0 mm
06:57 PM 85.7°F29.8°C 76.7°F24.8°C 75% Calm Calm 12.3 mph19.8 kmh 29.93 in1013.5 mb 0.00 in0.0 mm 0.00 in/hr0.0 mm/hr 0.00 in0.0 mm
06:42 PM 85.5°F29.7°C 76.1°F24.5°C 74% 1.8 mph SSE2.9 kmh SSE 10.5 mph16.9 kmh 29.93 in1013.5 mb 0.00 in0.0 mm 0.00 in/hr0.0 mm/hr 0.00 in0.0 mm
06:27 PM 86.3°F30.2°C 75.5°F24.2°C 71% 5.1 mph SSW8.2 kmh SSW 26.2 mph42.2 kmh 29.93 in1013.5 mb 0.00 in0.0 mm 0.00 in/hr0.0 mm/hr 0.00 in0.0 mm
06:12 PM 87.5°F30.8°C 76.2°F24.6°C 70% 5.1 mph SSE8.2 kmh SSE 12.3 mph19.8 kmh 29.94 in1013.9 mb 0.00 in0.0 mm 0.00 in/hr0.0 mm/hr 0.00 in0.0 mm
05:57 PM 88.8°F31.6°C 77.0°F25.0°C 69% 1.8 mph SW2.9 kmh SW 17.4 mph28.0 kmh 29.94 in1013.9 mb 0.00 in0.0 mm 0.00 in/hr0.0 mm/hr 0.00 in0.0 mm
05:42 PM 89.9°F32.2°C 77.5°F25.3°C 68% Calm Calm 12.3 mph19.8 kmh 29.94 in1013.9 mb 0.00 in0.0 mm 0.00 in/hr0.0 mm/hr 0.00 in0.0 mm
05:27 PM 90.4°F32.4°C 77.1°F25.1°C 66% 6.9 mph SSW11.1 kmh SSW 15.7 mph25.3 kmh 29.93 in1013.5 mb 0.00 in0.0 mm 0.00 in/hr0.0 mm/hr 0.00 in0.0 mm
05:12 PM 90.0°F32.2°C 76.2°F24.6°C 65% Calm Calm 17.4 mph28.0 kmh 29.94 in1013.9 mb 0.00 in0.0 mm 0.00 in/hr0.0 mm/hr 0.00 in0.0 mm
04:57 PM 90.2°F32.3°C 76.4°F24.7°C 65% Calm Calm 22.8 mph36.7 kmh 29.94 in1013.9 mb 0.00 in0.0 mm 0.00 in/hr0.0 mm/hr 0.00 in0.0 mm
04:42 PM 90.6°F32.6°C 75.8°F24.3°C 63% 3.6 mph S5.8 kmh S 14.1 mph22.7 kmh 29.95 in1014.2 mb 0.00 in0.0 mm 0.00 in/hr0.0 mm/hr 0.00 in0.0 mm
04:27 PM 90.6°F32.6°C 76.3°F24.6°C 64% 1.8 mph SSE2.9 kmh SSE 14.1 mph22.7 kmh 29.95 in1014.2 mb 0.00 in0.0 mm 0.00 in/hr0.0 mm/hr 0.00 in0.0 mm
04:12 PM 90.4°F32.4°C 76.6°F24.8°C 65% 3.6 mph SW5.8 kmh SW 15.7 mph25.3 kmh 29.96 in1014.6 mb 0.00 in0.0 mm 0.00 in/hr0.0 mm/hr 0.00 in0.0 mm
03:57 PM 91.5°F33.1°C 77.6°F25.3°C 65% 3.6 mph SE5.8 kmh SE 17.4 mph28.0 kmh 29.97 in1014.9 mb 0.00 in0.0 mm 0.00 in/hr0.0 mm/hr 0.00 in0.0 mm
03:42 PM 91.8°F33.2°C 76.9°F24.9°C 63% Calm Calm 12.3 mph19.8 kmh 29.97 in1014.9 mb 0.00 in0.0 mm 0.00 in/hr0.0 mm/hr 0.00 in0.0 mm
03:27 PM 92.6°F33.7°C 78.1°F25.6°C 64% 1.8 mph SW2.9 kmh SW 14.1 mph22.7 kmh 29.97 in1014.9 mb 0.00 in0.0 mm 0.00 in/hr0.0 mm/hr 0.00 in0.0 mm
03:12 PM 92.4°F33.6°C 76.9°F24.9°C 62% 1.8 mph S2.9 kmh S 15.7 mph25.3 kmh 29.97 in1014.9 mb 0.00 in0.0 mm 0.00 in/hr0.0 mm/hr 0.00 in0.0 mm
02:57 PM 92.0°F33.3°C 77.6°F25.3°C 64% 1.8 mph SW2.9 kmh SW 14.1 mph22.7 kmh 29.98 in1015.2 mb 0.00 in0.0 mm 0.00 in/hr0.0 mm/hr 0.00 in0.0 mm
02:42 PM 91.8°F33.2°C 76.9°F24.9°C 63% Calm Calm 17.4 mph28.0 kmh 29.98 in1015.2 mb 0.00 in0.0 mm 0.00 in/hr0.0 mm/hr 0.00 in0.0 mm
02:27 PM 90.6°F32.6°C 76.8°F24.9°C 65% 6.9 mph SE11.1 kmh SE 15.7 mph25.3 kmh 29.99 in1015.6 mb 0.00 in0.0 mm 0.00 in/hr0.0 mm/hr 0.00 in0.0 mm
02:12 PM 90.9°F32.7°C 77.6°F25.3°C 66% 5.1 mph ESE8.2 kmh ESE 14.1 mph22.7 kmh 29.99 in1015.6 mb 0.00 in0.0 mm 0.00 in/hr0.0 mm/hr 0.00 in0.0 mm
01:57 PM 92.2°F33.4°C 77.8°F25.4°C 64% 5.1 mph SSW8.2 kmh SSW 14.1 mph22.7 kmh 29.99 in1015.6 mb 0.00 in0.0 mm 0.00 in/hr0.0 mm/hr 0.00 in0.0 mm
01:42 PM 91.3°F32.9°C 79.4°F26.3°C 69% 5.1 mph SSW8.2 kmh SSW 15.7 mph25.3 kmh 30.00 in1015.9 mb 0.00 in0.0 mm 0.00 in/hr0.0 mm/hr 0.00 in0.0 mm
01:27 PM 87.5°F30.8°C 77.1°F25.1°C 72% 6.9 mph ESE11.1 kmh ESE 17.4 mph28.0 kmh 30.00 in1015.9 mb 0.00 in0.0 mm 0.00 in/hr0.0 mm/hr 0.00 in0.0 mm
01:12 PM 88.2°F31.2°C 76.9°F24.9°C 70% 1.8 mph ESE2.9 kmh ESE 12.3 mph19.8 kmh 30.00 in1015.9 mb 0.00 in0.0 mm 0.00 in/hr0.0 mm/hr 0.00 in0.0 mm
12:57 PM 89.7°F32.1°C 77.8°F25.4°C 69% 5.1 mph E8.2 kmh E 15.7 mph25.3 kmh 30.00 in1015.9 mb 0.00 in0.0 mm 0.00 in/hr0.0 mm/hr 0.00 in0.0 mm
12:42 PM 89.0°F31.7°C 78.5°F25.8°C 72% 3.6 mph SE5.8 kmh SE 15.7 mph25.3 kmh 30.00 in1015.9 mb 0.00 in0.0 mm 0.00 in/hr0.0 mm/hr 0.00 in0.0 mm
12:27 PM 90.4°F32.4°C 78.0°F25.6°C 68% 3.6 mph ESE5.8 kmh ESE 19.2 mph30.9 kmh 30.00 in1015.9 mb 0.00 in0.0 mm 0.00 in/hr0.0 mm/hr 0.00 in0.0 mm
12:12 PM 89.7°F32.1°C 77.8°F25.4°C 69% Calm Calm 6.9 mph11.1 kmh 30.01 in1016.3 mb 0.00 in0.0 mm 0.00 in/hr0.0 mm/hr 0.00 in0.0 mm
11:57 AM 88.1°F31.2°C 75.8°F24.3°C 68% Calm Calm 3.6 mph5.8 kmh 30.01 in1016.3 mb 0.00 in0.0 mm 0.00 in/hr0.0 mm/hr 0.00 in0.0 mm
11:42 AM 87.7°F30.9°C 75.0°F23.9°C 67% 1.8 mph NW2.9 kmh NW 8.7 mph14.0 kmh 30.01 in1016.3 mb 0.00 in0.0 mm 0.00 in/hr0.0 mm/hr 0.00 in0.0 mm
11:27 AM 90.6°F32.6°C 76.3°F24.6°C 64% 1.8 mph ENE2.9 kmh ENE 8.7 mph14.0 kmh 30.02 in1016.6 mb 0.00 in0.0 mm 0.00 in/hr0.0 mm/hr 0.00 in0.0 mm
11:12 AM 88.8°F31.6°C 75.1°F23.9°C 65% Calm Calm 12.3 mph19.8 kmh 30.02 in1016.6 mb 0.00 in0.0 mm 0.00 in/hr0.0 mm/hr 0.00 in0.0 mm
10:57 AM 88.2°F31.2°C 76.9°F24.9°C 70% 1.8 mph NW2.9 kmh NW 8.7 mph14.0 kmh 30.02 in1016.6 mb 0.00 in0.0 mm 0.00 in/hr0.0 mm/hr 0.00 in0.0 mm
10:42 AM 88.1°F31.2°C 75.8°F24.3°C 68% 3.6 mph W5.8 kmh W 10.5 mph16.9 kmh 30.03 in1016.9 mb 0.00 in0.0 mm 0.00 in/hr0.0 mm/hr 0.00 in0.0 mm
10:27 AM 87.2°F30.7°C 76.8°F24.9°C 72% Calm Calm 10.5 mph16.9 kmh 30.02 in1016.6 mb 0.00 in0.0 mm 0.00 in/hr0.0 mm/hr 0.00 in0.0 mm
10:12 AM 85.7°F29.8°C 76.7°F24.8°C 75% 1.8 mph WSW2.9 kmh WSW 14.1 mph22.7 kmh 30.02 in1016.6 mb 0.00 in0.0 mm 0.00 in/hr0.0 mm/hr 0.00 in0.0 mm
09:57 AM 84.8°F29.3°C 75.8°F24.3°C 75% Calm Calm 12.3 mph19.8 kmh 30.02 in1016.6 mb 0.00 in0.0 mm 0.00 in/hr0.0 mm/hr 0.00 in0.0 mm
09:42 AM 83.7°F28.7°C 76.0°F24.4°C 78% Calm Calm 12.3 mph19.8 kmh 30.01 in1016.3 mb 0.00 in0.0 mm 0.00 in/hr0.0 mm/hr 0.00 in0.0 mm
09:27 AM 83.0°F28.3°C 76.5°F24.7°C 81% Calm Calm 8.7 mph14.0 kmh 30.01 in1016.3 mb 0.00 in0.0 mm 0.00 in/hr0.0 mm/hr 0.00 in0.0 mm
09:12 AM 82.1°F27.8°C 77.4°F25.2°C 86% Calm Calm 3.6 mph5.8 kmh 30.01 in1016.3 mb 0.00 in0.0 mm 0.00 in/hr0.0 mm/hr 0.00 in0.0 mm
08:57 AM 81.2°F27.3°C 77.3°F25.2°C 88% 1.8 mph NW2.9 kmh NW 5.1 mph8.2 kmh 30.01 in1016.3 mb 0.00 in0.0 mm 0.00 in/hr0.0 mm/hr 0.00 in0.0 mm
08:42 AM 80.3°F26.8°C 77.8°F25.4°C 92% Calm Calm 3.6 mph5.8 kmh 30.01 in1016.3 mb 0.00 in0.0 mm 0.00 in/hr0.0 mm/hr 0.00 in0.0 mm
08:27 AM 79.2°F26.2°C 77.7°F25.4°C 95% 1.8 mph NW2.9 kmh NW 6.9 mph11.1 kmh 30.01 in1016.3 mb 0.00 in0.0 mm 0.00 in/hr0.0 mm/hr 0.00 in0.0 mm
08:12 AM 78.5°F25.8°C 77.6°F25.3°C 97% Calm Calm 6.9 mph11.1 kmh 30.01 in1016.3 mb 0.00 in0.0 mm 0.00 in/hr0.0 mm/hr 0.00 in0.0 mm
07:57 AM 77.6°F25.3°C 77.0°F25.0°C 98% Calm Calm 5.1 mph8.2 kmh 30.01 in1016.3 mb 0.00 in0.0 mm 0.00 in/hr0.0 mm/hr 0.00 in0.0 mm
07:42 AM 76.9°F24.9°C 76.3°F24.6°C 98% Calm Calm -- 30.01 in1016.3 mb 0.00 in0.0 mm 0.00 in/hr0.0 mm/hr 0.00 in0.0 mm
07:27 AM 76.4°F24.7°C 75.7°F24.3°C 98% Calm Calm 1.8 mph2.9 kmh 30.01 in1016.3 mb 0.00 in0.0 mm 0.00 in/hr0.0 mm/hr 0.00 in0.0 mm
07:12 AM 75.8°F24.3°C 74.9°F23.8°C 97% Calm Calm 1.8 mph2.9 kmh 30.00 in1015.9 mb 0.00 in0.0 mm 0.00 in/hr0.0 mm/hr 0.00 in0.0 mm
06:57 AM 75.5°F24.2°C 74.5°F23.6°C 97% Calm Calm -- 30.00 in1015.9 mb 0.00 in0.0 mm 0.00 in/hr0.0 mm/hr 0.00 in0.0 mm
06:42 AM 75.6°F24.2°C 74.7°F23.7°C 97% Calm Calm -- 30.00 in1015.9 mb 0.00 in0.0 mm 0.00 in/hr0.0 mm/hr 0.00 in0.0 mm
06:27 AM 75.8°F24.3°C 74.9°F23.8°C 97% Calm Calm 1.8 mph2.9 kmh 29.99 in1015.6 mb 0.00 in0.0 mm 0.00 in/hr0.0 mm/hr 0.00 in0.0 mm
06:12 AM 76.0°F24.4°C 75.1°F23.9°C 97% Calm Calm -- 29.98 in1015.2 mb 0.00 in0.0 mm 0.00 in/hr0.0 mm/hr 0.00 in0.0 mm
05:57 AM 76.0°F24.4°C 75.1°F23.9°C 97% Calm Calm 3.6 mph5.8 kmh 29.98 in1015.2 mb 0.00 in0.0 mm 0.00 in/hr0.0 mm/hr 0.00 in0.0 mm
05:42 AM 75.6°F24.2°C 74.4°F23.6°C 96% Calm Calm 1.8 mph2.9 kmh 29.98 in1015.2 mb 0.00 in0.0 mm 0.00 in/hr0.0 mm/hr 0.00 in0.0 mm
05:27 AM 75.8°F24.3°C 74.6°F23.7°C 96% Calm Calm 1.8 mph2.9 kmh 29.98 in1015.2 mb 0.00 in0.0 mm 0.00 in/hr0.0 mm/hr 0.00 in0.0 mm
05:12 AM 76.0°F24.4°C 74.8°F23.8°C 96% Calm Calm 1.8 mph2.9 kmh 29.98 in1015.2 mb 0.00 in0.0 mm 0.00 in/hr0.0 mm/hr 0.00 in0.0 mm
04:57 AM 76.0°F24.4°C 74.8°F23.8°C 96% Calm Calm -- 29.98 in1015.2 mb 0.00 in0.0 mm 0.00 in/hr0.0 mm/hr 0.00 in0.0 mm
04:42 AM 75.8°F24.3°C 74.3°F23.5°C 95% Calm Calm -- 29.98 in1015.2 mb 0.00 in0.0 mm 0.00 in/hr0.0 mm/hr 0.00 in0.0 mm
04:27 AM 76.0°F24.4°C 74.5°F23.6°C 95% Calm Calm -- 29.98 in1015.2 mb 0.00 in0.0 mm 0.00 in/hr0.0 mm/hr 0.00 in0.0 mm
04:12 AM 76.2°F24.6°C 74.6°F23.7°C 95% Calm Calm -- 29.99 in1015.6 mb 0.00 in0.0 mm 0.00 in/hr0.0 mm/hr 0.00 in0.0 mm
03:57 AM 76.4°F24.7°C 74.8°F23.8°C 95% Calm Calm 1.8 mph2.9 kmh 29.99 in1015.6 mb 0.00 in0.0 mm 0.00 in/hr0.0 mm/hr 0.00 in0.0 mm
03:42 AM 76.4°F24.7°C 74.8°F23.8°C 95% Calm Calm -- 29.99 in1015.6 mb 0.00 in0.0 mm 0.00 in/hr0.0 mm/hr 0.00 in0.0 mm
03:27 AM 76.4°F24.7°C 74.8°F23.8°C 95% Calm Calm 1.8 mph2.9 kmh 29.99 in1015.6 mb 0.00 in0.0 mm 0.00 in/hr0.0 mm/hr 0.00 in0.0 mm
03:12 AM 76.4°F24.7°C 74.5°F23.6°C 94% Calm Calm 1.8 mph2.9 kmh 30.00 in1015.9 mb 0.00 in0.0 mm 0.00 in/hr0.0 mm/hr 0.00 in0.0 mm
02:57 AM 76.4°F24.7°C 74.2°F23.4°C 93% Calm Calm -- 30.00 in1015.9 mb 0.00 in0.0 mm 0.00 in/hr0.0 mm/hr 0.00 in0.0 mm
02:42 AM 76.7°F24.8°C 74.5°F23.6°C 93% Calm Calm -- 30.01 in1016.3 mb 0.00 in0.0 mm 0.00 in/hr0.0 mm/hr 0.00 in0.0 mm
02:27 AM 76.9°F24.9°C 75.0°F23.9°C 94% Calm Calm -- 30.01 in1016.3 mb 0.00 in0.0 mm 0.00 in/hr0.0 mm/hr 0.00 in0.0 mm
02:12 AM 76.5°F24.7°C 74.3°F23.5°C 93% Calm Calm -- 30.01 in1016.3 mb 0.00 in0.0 mm 0.00 in/hr0.0 mm/hr 0.00 in0.0 mm
01:57 AM 76.7°F24.8°C 74.5°F23.6°C 93% Calm Calm 1.8 mph2.9 kmh 30.01 in1016.3 mb 0.00 in0.0 mm 0.00 in/hr0.0 mm/hr 0.00 in0.0 mm
01:42 AM 76.9°F24.9°C 74.7°F23.7°C 93% Calm Calm 1.8 mph2.9 kmh 30.01 in1016.3 mb 0.00 in0.0 mm 0.00 in/hr0.0 mm/hr 0.00 in0.0 mm
01:27 AM 77.1°F25.1°C 74.6°F23.7°C 92% Calm Calm 1.8 mph2.9 kmh 30.01 in1016.3 mb 0.00 in0.0 mm 0.00 in/hr0.0 mm/hr 0.00 in0.0 mm
01:12 AM 77.1°F25.1°C 74.9°F23.8°C 93% Calm Calm 1.8 mph2.9 kmh 30.01 in1016.3 mb 0.00 in0.0 mm 0.00 in/hr0.0 mm/hr 0.00 in0.0 mm
12:57 AM 77.1°F25.1°C 74.6°F23.7°C 92% Calm Calm 1.8 mph2.9 kmh 30.01 in1016.3 mb 0.00 in0.0 mm 0.00 in/hr0.0 mm/hr 0.00 in0.0 mm
12:42 AM 77.3°F25.2°C 74.7°F23.7°C 92% Calm Calm 1.8 mph2.9 kmh 30.01 in1016.3 mb 0.00 in0.0 mm 0.00 in/hr0.0 mm/hr 0.00 in0.0 mm
12:27 AM 77.4°F25.2°C 74.9°F23.8°C 92% Calm Calm 1.8 mph2.9 kmh 30.02 in1016.6 mb 0.00 in0.0 mm 0.00 in/hr0.0 mm/hr 0.00 in0.0 mm
12:12 AM 77.8°F25.4°C 74.9°F23.8°C 91% Calm Calm -- 30.02 in1016.6 mb 0.00 in0.0 mm 0.00 in/hr0.0 mm/hr 0.00 in0.0 mm